Aleknagik, Alaska
Current Conditions -  °F | °C
As of 7:45 AM on Monday 22 Dec 2014 (Local Time) from PADL Reporting Station
Broken Clouds Broken Clouds  
Wind Chill:   Ceiling: 2700
Heat Index: 16°   Visibility: 10mi
Dew Point: 10°   Wind: 10mph
Humidity: 79%   Direction: 330°NNW
Pressure: 29.74"   Gusts: NA
Location:  59.27°N, 158.62°W
Report Text: PADL 221645Z 33009KT 10SM BKN027 M09/M12 A2974
Loading
Personal Weather Stations






























Interactive Weather Map New forecast layout! Learn more

10-Day Weather Forecast

Advertisements
Track Severe Weather on mobile